Vremea mâine în Târgu Lăpuș - Romania

Vrei sa afli care e starea vremii acum in Maramures - Romania? Dorim sa iti furnizam starea vremii pentru Maramures - Romania. Starea vremii Maramures - Romania pentru astazi.

Vremea mâine în Târgu Lăpuș

Temperatura minimă:
7.7 °C

Temperatura maximă:
22.7 °C

Mâine va fi: Senin
Precipitații: 0 %
Umiditate: 63%
Viteza maximă vânt mâine:
9.7 km/h

Evoluția vremii in Târgu Lăpuș pe ore mâine

Ora: 15:00
Temperatura: °C
Sansa de precipitatii: %
Ora Descriere Temp Se simte Precipitatii Umiditate Vant
00:00Senin9.9°9.8°0%80%E 4.7 KM/H
01:00Senin9.5°9.4°0%81%E 4.3 KM/H
02:00Senin9.1°0%81%E 4.3 KM/H
03:00Senin8.8°8.7°0%81%E 4.3 KM/H
04:00Senin8.5°8.2°0%81%E 4.7 KM/H
05:00Senin8.2°7.6°0%82%E 5 KM/H
06:00Senin7.7°7.1°0%83%ESE 5 KM/H
07:00Senin8.6°8.1°0%81%ESE 5.4 KM/H
08:00Senin13.5°13.7°0%73%SE 5 KM/H
09:00Senin16.1°16.1°0%65%SSE 5.4 KM/H
10:00Senin18°18°0%59%SSE 6.1 KM/H
11:00Senin19.5°19.5°0%53%S 7.6 KM/H
12:00Senin20.7°20.7°0%49%S 8.6 KM/H
13:00Senin21.6°21.6°0%46%S 9.4 KM/H
14:00Senin22.3°24.3°0%44%S 9.7 KM/H
15:00Senin22.6°24.3°0%42%S 9.4 KM/H
16:00Senin22.7°24.3°0%41%S 8.6 KM/H
17:00Senin22.5°24.2°0%40%S 7.6 KM/H
18:00Senin22.2°24.2°0%42%SSW 6.8 KM/H
19:00Senin21°21°0%56%SSW 4.7 KM/H
20:00Senin15.4°15.4°0%62%SE 2.9 KM/H
21:00Senin13.5°13.9°0%63%ESE 4.3 KM/H
22:00Senin12.9°13.1°0%64%ESE 4.7 KM/H
23:00Patchy rain nearby12.7°12.9°68%65%ESE 4.7 KM/H




tutorials